createdAt,value
2023-04-22T00:00:05.464Z,44.63
2023-04-22T00:02:42.588Z,44.22
2023-04-22T00:05:17.202Z,44.51
2023-04-22T00:07:53.296Z,44.27
2023-04-22T00:10:26.182Z,44.86
2023-04-22T00:12:59.051Z,44.64
2023-04-22T00:15:33.561Z,44.56
2023-04-22T00:18:07.738Z,44.75
2023-04-22T00:20:41.412Z,44.73
2023-04-22T00:23:14.715Z,45.19
2023-04-22T00:25:47.269Z,45.22
2023-04-22T00:28:20.622Z,45.04
2023-04-22T00:30:55.020Z,45.01
2023-04-22T00:33:28.395Z,44.63
2023-04-22T00:36:00.869Z,44.61
2023-04-22T00:38:33.789Z,45.28
2023-04-22T00:41:07.542Z,44.80
2023-04-22T00:43:40.657Z,45.08
2023-04-22T00:46:16.743Z,45.17
2023-04-22T00:48:51.338Z,45.04
2023-04-22T00:51:23.943Z,45.48
2023-04-22T00:53:57.019Z,45.02
2023-04-22T00:56:31.933Z,45.70
2023-04-22T00:59:05.215Z,45.26
2023-04-22T01:01:39.279Z,45.40
2023-04-22T01:04:13.250Z,45.45
2023-04-22T01:06:47.542Z,45.37
2023-04-22T01:09:23.718Z,45.32
2023-04-22T01:11:57.517Z,45.65
2023-04-22T01:14:30.520Z,45.97
2023-04-22T01:17:04.782Z,45.99
2023-04-22T01:19:38.872Z,46.08
2023-04-22T01:22:13.733Z,46.36
2023-04-22T01:24:49.767Z,46.40
2023-04-22T01:27:22.461Z,46.04
2023-04-22T01:29:55.926Z,46.90
2023-04-22T01:32:30.874Z,47.16
2023-04-22T01:35:04.392Z,46.98
2023-04-22T01:37:37.985Z,46.81
2023-04-22T01:40:14.024Z,47.38
2023-04-22T01:42:47.584Z,47.57
2023-04-22T01:45:22.081Z,48.23
2023-04-22T01:47:56.039Z,48.78
2023-04-22T01:50:28.723Z,49.34
2023-04-22T01:53:02.219Z,49.23
2023-04-22T01:55:37.401Z,49.22
2023-04-22T01:58:11.235Z,49.90
2023-04-22T02:00:44.690Z,49.31
2023-04-22T02:03:17.981Z,49.07
2023-04-22T02:05:50.826Z,49.18
2023-04-22T02:08:24.696Z,49.81
2023-04-22T02:11:00.650Z,49.59
2023-04-22T02:13:38.127Z,49.92
2023-04-22T02:16:12.442Z,50.59
2023-04-22T02:18:45.397Z,50.66
2023-04-22T02:21:17.840Z,50.63
2023-04-22T02:23:51.146Z,50.96
2023-04-22T02:26:26.158Z,51.65
2023-04-22T02:28:58.778Z,52.07
2023-04-22T02:31:33.131Z,52.50
2023-04-22T02:34:06.870Z,52.07
2023-04-22T02:36:39.443Z,52.25
2023-04-22T02:39:12.980Z,52.33
2023-04-22T02:41:47.332Z,52.84
2023-04-22T02:44:21.059Z,53.24
2023-04-22T02:46:53.683Z,53.55
2023-04-22T02:49:26.776Z,53.05
2023-04-22T02:51:59.225Z,54.01
2023-04-22T02:54:32.161Z,53.75
2023-04-22T02:57:06.008Z,54.02
2023-04-22T02:59:39.090Z,54.19
2023-04-22T03:02:12.322Z,53.64
2023-04-22T03:05:03.481Z,53.99
2023-04-22T03:07:38.377Z,53.93
2023-04-22T03:10:11.726Z,54.31
2023-04-22T03:12:46.355Z,53.87
2023-04-22T03:15:21.531Z,52.27
2023-04-22T03:17:54.900Z,52.38
2023-04-22T03:20:29.558Z,52.82
2023-04-22T03:23:02.328Z,53.55
2023-04-22T03:25:36.663Z,51.79
2023-04-22T03:28:11.605Z,51.99
2023-04-22T03:30:45.807Z,52.21
2023-04-22T03:33:19.143Z,51.73
2023-04-22T03:36:00.237Z,51.51
2023-04-22T03:38:32.891Z,51.66
2023-04-22T03:41:06.420Z,51.56
2023-04-22T03:43:47.401Z,51.02
2023-04-22T03:46:21.214Z,51.54
2023-04-22T03:49:07.460Z,51.40
2023-04-22T03:51:41.050Z,51.31
2023-04-22T03:54:18.010Z,50.36
2023-04-22T03:56:56.913Z,50.47
2023-04-22T03:59:33.448Z,50.25
2023-04-22T04:02:07.835Z,50.18
2023-04-22T04:04:41.033Z,49.79
2023-04-22T04:07:14.586Z,49.55
2023-04-22T04:09:47.857Z,48.95
2023-04-22T04:12:20.804Z,48.87
2023-04-22T04:14:55.070Z,48.97
2023-04-22T04:17:28.938Z,48.53
2023-04-22T04:20:02.122Z,48.34
2023-04-22T04:22:36.443Z,47.83
2023-04-22T04:25:11.940Z,47.80
2023-04-22T04:27:51.957Z,48.00
2023-04-22T04:30:26.738Z,47.79
2023-04-22T04:33:07.163Z,47.50
2023-04-22T04:35:43.534Z,47.74
2023-04-22T04:38:20.139Z,47.49
2023-04-22T04:40:53.974Z,47.30
2023-04-22T04:43:29.919Z,47.27
2023-04-22T04:46:14.898Z,46.95
2023-04-22T04:48:49.192Z,46.25
2023-04-22T04:51:22.258Z,46.87
2023-04-22T04:53:59.241Z,45.71
2023-04-22T04:56:36.017Z,45.12
2023-04-22T04:59:09.496Z,44.18
2023-04-22T05:01:45.591Z,43.02
2023-04-22T05:04:19.554Z,42.59
2023-04-22T05:06:52.552Z,41.43
2023-04-22T05:09:25.250Z,40.99
2023-04-22T05:11:58.376Z,40.73
2023-04-22T05:14:31.625Z,40.21
2023-04-22T05:17:06.170Z,39.71
2023-04-22T05:19:39.834Z,39.79
2023-04-22T05:22:13.321Z,39.04
2023-04-22T05:24:46.018Z,38.51
2023-04-22T05:27:20.129Z,38.30
2023-04-22T05:29:53.028Z,37.74
2023-04-22T05:32:33.079Z,37.13
2023-04-22T05:35:06.913Z,36.62
2023-04-22T05:37:40.306Z,36.53
2023-04-22T05:40:13.126Z,36.25
2023-04-22T05:42:46.466Z,35.78
2023-04-22T05:45:19.459Z,35.96
2023-04-22T05:47:53.597Z,35.55
2023-04-22T05:50:28.048Z,35.29
2023-04-22T05:53:08.411Z,35.06
2023-04-22T05:55:41.639Z,34.92
2023-04-22T05:58:15.999Z,34.34
2023-04-22T06:00:54.807Z,34.78
2023-04-22T06:03:58.973Z,34.59
2023-04-22T06:06:32.309Z,34.14
2023-04-22T06:09:05.236Z,34.55
2023-04-22T06:11:37.928Z,34.94
2023-04-22T06:14:10.907Z,34.90
2023-04-22T06:16:44.721Z,34.83
2023-04-22T06:19:19.523Z,34.63
2023-04-22T06:21:52.744Z,34.88
2023-04-22T06:24:26.188Z,35.31
2023-04-22T06:27:00.773Z,35.67
2023-04-22T06:29:35.579Z,35.40
2023-04-22T06:32:08.042Z,35.30
2023-04-22T06:34:42.566Z,35.19
2023-04-22T06:37:16.054Z,35.26
2023-04-22T06:39:49.413Z,34.91
2023-04-22T06:42:42.158Z,35.19
2023-04-22T06:45:49.776Z,35.24
2023-04-22T06:48:29.412Z,34.81
2023-04-22T06:51:22.907Z,34.08
2023-04-22T06:53:55.809Z,34.10
2023-04-22T06:56:29.058Z,33.58
2023-04-22T06:59:01.880Z,33.70
2023-04-22T07:04:28.276Z,33.68
2023-04-22T07:07:03.196Z,33.98
2023-04-22T07:09:36.859Z,34.11
2023-04-22T07:12:09.721Z,33.40
2023-04-22T07:14:44.627Z,33.81
2023-04-22T07:17:19.617Z,33.64
2023-04-22T07:19:53.997Z,34.08
2023-04-22T07:22:27.992Z,34.08
2023-04-22T07:25:01.127Z,34.82
2023-04-22T07:27:35.850Z,34.88
2023-04-22T07:30:13.965Z,34.74
2023-04-22T07:32:48.782Z,34.20
2023-04-22T07:35:22.241Z,34.88
2023-04-22T07:37:56.198Z,34.34
2023-04-22T07:40:29.278Z,34.87
2023-04-22T07:43:02.892Z,34.89
2023-04-22T07:45:35.839Z,35.20
2023-04-22T07:48:09.283Z,34.94
2023-04-22T07:50:42.057Z,34.75
2023-04-22T07:53:17.991Z,34.52
2023-04-22T07:55:50.815Z,34.41
2023-04-22T07:58:23.662Z,34.29
2023-04-22T08:00:56.444Z,34.78
2023-04-22T08:03:29.934Z,35.14
2023-04-22T08:06:03.034Z,35.08
2023-04-22T08:08:37.260Z,34.86
2023-04-22T08:11:09.863Z,35.08
2023-04-22T08:13:42.706Z,34.94
2023-04-22T08:16:16.993Z,34.94
2023-04-22T08:18:50.034Z,35.11
2023-04-22T08:21:22.714Z,35.47
2023-04-22T08:23:57.265Z,35.13
2023-04-22T08:26:29.806Z,35.16
2023-04-22T08:29:04.294Z,34.80
2023-04-22T08:31:36.979Z,35.38
2023-04-22T08:34:10.310Z,35.05
2023-04-22T08:36:43.102Z,34.83
2023-04-22T08:39:17.898Z,34.87
2023-04-22T08:41:52.141Z,34.61
2023-04-22T08:44:25.883Z,34.69
2023-04-22T08:47:02.625Z,34.90
2023-04-22T08:49:37.214Z,34.43
2023-04-22T08:52:13.212Z,34.49
2023-04-22T08:54:47.738Z,34.63
2023-04-22T08:57:21.652Z,34.37
2023-04-22T08:59:55.848Z,34.25
2023-04-22T09:02:32.409Z,34.38
2023-04-22T09:05:07.303Z,34.36
2023-04-22T09:07:41.167Z,34.53
2023-04-22T09:10:15.932Z,34.15
2023-04-22T09:12:49.848Z,34.41
2023-04-22T09:15:23.001Z,34.08
2023-04-22T09:17:57.044Z,34.31
2023-04-22T09:20:30.717Z,34.39
2023-04-22T09:25:58.470Z,34.09
2023-04-22T09:28:31.442Z,33.95
2023-04-22T09:31:04.542Z,33.85
2023-04-22T09:33:40.234Z,33.86
2023-04-22T09:36:14.253Z,33.92
2023-04-22T09:38:53.315Z,33.68
2023-04-22T09:41:31.670Z,33.91
2023-04-22T09:44:08.709Z,33.37
2023-04-22T09:46:44.631Z,33.34
2023-04-22T09:49:19.257Z,33.00
2023-04-22T09:51:56.542Z,33.09
2023-04-22T09:54:29.435Z,32.86
2023-04-22T09:57:05.714Z,32.89
2023-04-22T09:59:39.264Z,33.12
2023-04-22T10:02:12.501Z,33.25
2023-04-22T10:04:46.137Z,33.31
2023-04-22T10:07:19.143Z,33.79
2023-04-22T10:09:52.045Z,33.64
2023-04-22T10:12:35.379Z,33.74
2023-04-22T10:15:09.451Z,33.76
2023-04-22T10:17:45.816Z,33.49
2023-04-22T10:20:20.322Z,33.27
2023-04-22T10:22:54.836Z,33.40
2023-04-22T10:25:27.733Z,33.76
2023-04-22T10:28:05.221Z,33.51
2023-04-22T10:30:39.683Z,33.17
2023-04-22T10:33:39.586Z,33.12
2023-04-22T10:36:20.173Z,33.15
2023-04-22T10:39:18.200Z,32.90
2023-04-22T10:41:55.894Z,32.90
2023-04-22T10:44:46.002Z,32.85
2023-04-22T10:47:29.456Z,33.63
2023-04-22T10:50:14.529Z,33.06
2023-04-22T10:52:50.418Z,33.19
2023-04-22T10:55:24.026Z,32.72
2023-04-22T10:57:59.917Z,32.52
2023-04-22T11:00:52.502Z,32.55
2023-04-22T11:03:28.770Z,32.66
2023-04-22T11:06:16.551Z,32.56
2023-04-22T11:08:50.338Z,32.52
2023-04-22T11:11:23.113Z,32.51
2023-04-22T11:13:57.952Z,32.44
2023-04-22T11:16:32.467Z,32.18
2023-04-22T11:19:05.502Z,32.30
2023-04-22T11:21:38.923Z,32.01
2023-04-22T11:24:11.813Z,31.64
2023-04-22T11:26:45.056Z,31.37
2023-04-22T11:29:17.464Z,31.76
2023-04-22T11:31:52.017Z,31.92
2023-04-22T11:34:24.768Z,32.01
2023-04-22T11:36:58.795Z,32.43
2023-04-22T11:39:36.289Z,32.16
2023-04-22T11:42:09.408Z,32.06
2023-04-22T11:44:45.314Z,32.17
2023-04-22T11:47:19.721Z,32.09
2023-04-22T11:49:56.952Z,32.31
2023-04-22T11:52:44.986Z,31.97
2023-04-22T11:55:20.581Z,32.02
2023-04-22T11:57:58.582Z,32.08
2023-04-22T12:00:34.632Z,32.04
2023-04-22T12:03:15.444Z,32.34
2023-04-22T12:05:52.741Z,31.96
2023-04-22T12:08:30.599Z,32.33
2023-04-22T12:11:05.739Z,32.10
2023-04-22T12:13:42.710Z,31.99
2023-04-22T12:16:20.257Z,32.24
2023-04-22T12:18:55.820Z,32.22
2023-04-22T12:21:32.724Z,32.29
2023-04-22T12:24:11.342Z,32.23
2023-04-22T12:26:44.546Z,32.18
2023-04-22T12:29:17.044Z,31.71
2023-04-22T12:31:49.849Z,31.75
2023-04-22T12:34:23.958Z,31.50
2023-04-22T12:36:56.912Z,31.74
2023-04-22T12:39:29.885Z,31.53
2023-04-22T12:42:03.144Z,31.27
2023-04-22T12:44:36.654Z,30.82
2023-04-22T12:47:10.543Z,31.01
2023-04-22T12:49:47.287Z,31.33
2023-04-22T12:52:20.325Z,31.44
2023-04-22T12:54:52.923Z,31.17
2023-04-22T12:57:26.634Z,31.22
2023-04-22T12:59:59.561Z,31.41
2023-04-22T13:02:33.401Z,31.10
2023-04-22T13:05:08.017Z,31.41
2023-04-22T13:07:42.128Z,31.48
2023-04-22T13:10:17.454Z,31.21
2023-04-22T13:12:50.432Z,31.65
2023-04-22T13:15:23.169Z,31.62
2023-04-22T13:17:56.333Z,31.83
2023-04-22T13:20:30.431Z,31.91
2023-04-22T13:23:05.128Z,31.85
2023-04-22T13:25:37.807Z,31.82
2023-04-22T13:28:11.888Z,32.00
2023-04-22T13:30:44.635Z,32.00
2023-04-22T13:33:17.648Z,32.34
2023-04-22T13:35:51.918Z,31.81
2023-04-22T13:38:25.173Z,32.22
2023-04-22T13:40:57.736Z,31.51
2023-04-22T13:43:30.851Z,31.51
2023-04-22T13:46:03.900Z,31.09
2023-04-22T13:48:36.750Z,31.25
2023-04-22T13:51:10.698Z,30.90
2023-04-22T13:53:43.951Z,31.02
2023-04-22T13:56:16.543Z,31.07
2023-04-22T13:58:49.815Z,31.09
2023-04-22T14:01:22.470Z,31.26
2023-04-22T14:03:56.087Z,31.16
2023-04-22T14:06:30.487Z,31.39
2023-04-22T14:09:04.923Z,31.40
2023-04-22T14:11:37.451Z,31.05
2023-04-22T14:14:10.228Z,31.42
2023-04-22T14:16:43.220Z,31.70
2023-04-22T14:19:16.662Z,31.31
2023-04-22T14:21:50.575Z,31.31
2023-04-22T14:24:24.507Z,31.75
2023-04-22T14:26:59.876Z,31.74
2023-04-22T14:29:32.677Z,31.92
2023-04-22T14:32:06.410Z,31.77
2023-04-22T14:34:39.587Z,31.78
2023-04-22T14:37:14.467Z,31.85
2023-04-22T14:39:47.403Z,31.57
2023-04-22T14:42:21.024Z,31.84
2023-04-22T14:44:53.871Z,31.85
2023-04-22T14:47:26.716Z,32.25
2023-04-22T14:49:59.377Z,32.22
2023-04-22T14:52:34.337Z,32.35
2023-04-22T14:55:19.476Z,32.05
2023-04-22T14:57:58.204Z,32.29
2023-04-22T15:00:31.010Z,32.32
2023-04-22T15:03:04.457Z,32.15
2023-04-22T15:05:37.710Z,31.87
2023-04-22T15:08:12.005Z,31.99
2023-04-22T15:10:44.520Z,31.96
2023-04-22T15:13:17.757Z,32.04
2023-04-22T15:15:50.644Z,31.40
2023-04-22T15:18:26.275Z,31.65
2023-04-22T15:20:59.217Z,31.75
2023-04-22T15:23:33.922Z,31.60
2023-04-22T15:26:06.840Z,31.53
2023-04-22T15:28:40.540Z,31.41
2023-04-22T15:31:22.178Z,31.23
2023-04-22T15:34:00.105Z,31.57
2023-04-22T15:36:36.655Z,31.56
2023-04-22T15:39:12.110Z,31.65
2023-04-22T15:41:45.981Z,31.70
2023-04-22T15:44:19.721Z,31.50
2023-04-22T15:46:53.239Z,31.49
2023-04-22T15:49:26.603Z,31.70
2023-04-22T15:52:01.232Z,31.36
2023-04-22T15:54:36.191Z,31.34
2023-04-22T15:57:11.191Z,31.45
2023-04-22T15:59:44.354Z,31.65
2023-04-22T16:02:17.602Z,31.87
2023-04-22T16:05:00.077Z,31.72
2023-04-22T16:07:46.740Z,31.69
2023-04-22T16:10:27.090Z,31.70
2023-04-22T16:13:37.441Z,31.95
2023-04-22T16:16:23.573Z,32.23
2023-04-22T16:19:28.545Z,31.91
2023-04-22T16:22:25.908Z,32.40
2023-04-22T16:25:36.578Z,32.09
2023-04-22T16:28:26.709Z,32.63
2023-04-22T16:31:45.138Z,32.53
2023-04-22T16:34:52.268Z,32.77
2023-04-22T16:37:49.293Z,33.19
2023-04-22T16:40:39.265Z,33.59
2023-04-22T16:43:32.183Z,33.68
2023-04-22T16:46:26.782Z,33.84
2023-04-22T16:49:11.625Z,33.93
2023-04-22T16:51:44.574Z,33.95
2023-04-22T16:54:17.186Z,34.49
2023-04-22T16:56:50.094Z,34.20
2023-04-22T16:59:24.396Z,34.59
2023-04-22T17:02:00.985Z,34.77
2023-04-22T17:04:33.513Z,35.03
2023-04-22T17:07:06.520Z,36.24
2023-04-22T17:09:40.062Z,36.94
2023-04-22T17:12:13.563Z,37.09
2023-04-22T17:14:48.965Z,37.76
2023-04-22T17:17:23.248Z,38.05
2023-04-22T17:19:56.663Z,38.21
2023-04-22T17:22:29.405Z,38.52
2023-04-22T17:25:02.783Z,38.98
2023-04-22T17:27:36.547Z,38.66
2023-04-22T17:30:09.986Z,39.47
2023-04-22T17:32:44.458Z,39.60
2023-04-22T17:35:17.044Z,39.69
2023-04-22T17:37:51.252Z,39.60
2023-04-22T17:40:31.516Z,40.71
2023-04-22T17:43:04.824Z,40.83
2023-04-22T17:45:54.522Z,40.64
2023-04-22T17:48:29.615Z,40.76
2023-04-22T17:51:05.308Z,40.64
2023-04-22T17:53:40.090Z,41.52
2023-04-22T17:56:13.359Z,41.53
2023-04-22T17:58:48.169Z,41.80
2023-04-22T18:01:24.068Z,41.73
2023-04-22T18:03:58.921Z,42.80
2023-04-22T18:06:32.610Z,42.43
2023-04-22T18:09:07.650Z,42.54
2023-04-22T18:11:41.007Z,43.15
2023-04-22T18:14:13.748Z,43.16
2023-04-22T18:16:52.873Z,43.47
2023-04-22T18:19:27.319Z,43.81
2023-04-22T18:22:01.609Z,43.81
2023-04-22T18:24:34.366Z,44.21
2023-04-22T18:27:07.814Z,43.97
2023-04-22T18:29:40.855Z,44.19
2023-04-22T18:32:14.241Z,44.24
2023-04-22T18:34:48.719Z,44.77
2023-04-22T18:37:24.339Z,45.29
2023-04-22T18:39:59.454Z,45.21
2023-04-22T18:42:37.000Z,45.54
2023-04-22T18:45:10.939Z,45.53
2023-04-22T18:47:45.331Z,45.20
2023-04-22T18:50:21.324Z,45.30
2023-04-22T18:52:54.876Z,45.38
2023-04-22T18:55:29.083Z,45.28
2023-04-22T18:58:02.794Z,45.40
2023-04-22T19:00:35.906Z,45.63
2023-04-22T19:03:08.766Z,46.06
2023-04-22T19:05:43.554Z,46.33
2023-04-22T19:08:16.333Z,46.24
2023-04-22T19:10:49.379Z,46.58
2023-04-22T19:13:29.100Z,47.08
2023-04-22T19:16:03.295Z,47.76
2023-04-22T19:18:35.980Z,47.74
2023-04-22T19:21:10.251Z,47.59
2023-04-22T19:23:43.215Z,47.93
2023-04-22T19:26:16.206Z,47.65
2023-04-22T19:28:49.315Z,47.82
2023-04-22T19:31:22.570Z,47.88
2023-04-22T19:33:55.153Z,48.11
2023-04-22T19:36:29.658Z,48.56
2023-04-22T19:39:02.202Z,48.60
2023-04-22T19:41:35.445Z,48.58
2023-04-22T19:44:08.333Z,49.47
2023-04-22T19:46:41.951Z,49.58
2023-04-22T19:49:15.357Z,49.60
2023-04-22T19:51:50.331Z,50.23
2023-04-22T19:54:26.737Z,50.21
2023-04-22T19:57:00.687Z,50.36
2023-04-22T19:59:34.018Z,50.80
2023-04-22T20:02:08.609Z,50.96
2023-04-22T20:04:43.182Z,50.75
2023-04-22T20:07:18.798Z,51.08
2023-04-22T20:09:52.861Z,50.92
2023-04-22T20:12:28.766Z,51.15
2023-04-22T20:15:02.695Z,51.23
2023-04-22T20:17:39.352Z,51.08
2023-04-22T20:20:15.617Z,51.73
2023-04-22T20:22:53.162Z,51.97
2023-04-22T20:25:26.943Z,51.69
2023-04-22T20:28:00.283Z,52.16
2023-04-22T20:30:33.478Z,52.16
2023-04-22T20:33:06.855Z,52.79
2023-04-22T20:35:40.888Z,53.08
2023-04-22T20:38:16.442Z,52.88
2023-04-22T20:40:52.311Z,52.90
2023-04-22T20:43:24.861Z,53.25
2023-04-22T20:45:58.104Z,53.13
2023-04-22T20:48:30.782Z,53.63
2023-04-22T20:51:04.598Z,53.43
2023-04-22T20:53:38.704Z,53.12
2023-04-22T20:56:11.801Z,53.75
2023-04-22T20:58:44.876Z,53.47
2023-04-22T21:01:19.926Z,54.25
2023-04-22T21:03:56.224Z,54.60
2023-04-22T21:06:34.056Z,54.55
2023-04-22T21:09:09.568Z,54.48
2023-04-22T21:11:42.834Z,54.35
2023-04-22T21:14:16.549Z,54.59
2023-04-22T21:16:57.260Z,54.96
2023-04-22T21:19:34.200Z,54.62
2023-04-22T21:22:08.050Z,54.63
2023-04-22T21:24:44.010Z,54.89
2023-04-22T21:27:17.675Z,54.58
2023-04-22T21:29:51.479Z,54.78
2023-04-22T21:32:23.982Z,55.09
2023-04-22T21:34:57.255Z,55.16
2023-04-22T21:37:29.903Z,54.91
2023-04-22T21:40:07.292Z,55.51
2023-04-22T21:42:40.383Z,54.89
2023-04-22T21:45:13.423Z,55.86
2023-04-22T21:47:46.122Z,56.18
2023-04-22T21:50:20.810Z,56.40
2023-04-22T21:52:54.080Z,56.05
2023-04-22T21:55:28.173Z,56.50
2023-04-22T21:58:01.606Z,56.31
2023-04-22T22:00:34.538Z,56.65
2023-04-22T22:03:08.185Z,56.88
2023-04-22T22:05:42.955Z,56.88
2023-04-22T22:08:16.125Z,56.67
2023-04-22T22:10:50.793Z,56.61
2023-04-22T22:13:23.524Z,56.57
2023-04-22T22:15:57.610Z,55.61
2023-04-22T22:18:31.112Z,56.44
2023-04-22T22:21:04.283Z,57.59
2023-04-22T22:23:37.091Z,57.75
2023-04-22T22:26:14.974Z,57.60
2023-04-22T22:28:48.183Z,57.49
2023-04-22T22:31:20.886Z,56.85
2023-04-22T22:33:53.828Z,56.72
2023-04-22T22:36:27.034Z,57.28
2023-04-22T22:38:59.612Z,58.39
2023-04-22T22:41:33.728Z,57.53
2023-04-22T22:44:06.870Z,58.23
2023-04-22T22:46:40.558Z,58.32
2023-04-22T22:49:15.901Z,58.00
2023-04-22T22:51:48.774Z,58.02
2023-04-22T22:54:22.358Z,58.52
2023-04-22T22:56:57.972Z,59.18
2023-04-22T22:59:31.282Z,57.88
2023-04-22T23:02:04.216Z,57.84
2023-04-22T23:04:39.729Z,57.63
2023-04-22T23:07:15.016Z,59.04
2023-04-22T23:09:48.235Z,58.26
2023-04-22T23:12:22.092Z,58.18
2023-04-22T23:14:55.233Z,58.66
2023-04-22T23:17:27.742Z,57.95
2023-04-22T23:20:01.989Z,59.19
2023-04-22T23:22:42.003Z,59.36
2023-04-22T23:25:17.012Z,58.64
2023-04-22T23:27:51.408Z,59.21
2023-04-22T23:30:25.686Z,59.06
2023-04-22T23:33:02.777Z,59.74
2023-04-22T23:35:37.749Z,59.22
2023-04-22T23:38:11.906Z,58.98
2023-04-22T23:40:44.651Z,59.26
2023-04-22T23:43:19.370Z,59.30
2023-04-22T23:45:52.255Z,59.22
2023-04-22T23:48:25.334Z,59.06
2023-04-22T23:50:57.882Z,59.51
2023-04-22T23:53:31.201Z,60.08
2023-04-22T23:56:04.340Z,59.52
2023-04-22T23:58:39.895Z,59.71
